Lillyville, Illinois
Current Conditions -  °F | °C
As of 12:55 PM on Sunday 23 Nov 2014 (Local Time) from K1H2 Reporting Station
Overcast Overcast  
Wind Chill: 11°   Ceiling: 1200
Heat Index: 11°   Visibility: NA
Dew Point:   Wind: 13mph
Humidity: 85%   Direction: 130°SE
Pressure: 29.55"   Gusts: 18mph
Location:  39.1183°N, 88.6059°W
Report Text: K1H2 231855Z AUTO 13011G16KT OVC012 11/09 A2955 RMK AO2 T01100085 PWINO
Loading
Personal Weather Stations






























Interactive Weather Map New forecast layout! Learn more

10-Day Weather Forecast

Advertisements
Track Severe Weather on mobile